createdAt,value
2023-03-26T00:01:33.649Z,98742.72
2023-03-26T00:04:02.383Z,98739.66
2023-03-26T00:06:33.967Z,98739.81
2023-03-26T00:09:02.804Z,98736.19
2023-03-26T00:11:31.535Z,98741.44
2023-03-26T00:14:02.800Z,98739.91
2023-03-26T00:16:32.876Z,98745.00
2023-03-26T00:19:01.474Z,98746.97
2023-03-26T00:21:31.676Z,98738.13
2023-03-26T00:24:04.669Z,98732.84
2023-03-26T00:26:33.730Z,98736.84
2023-03-26T00:29:08.619Z,98744.91
2023-03-26T00:31:46.429Z,98742.63
2023-03-26T00:34:15.992Z,98744.41
2023-03-26T00:36:44.184Z,98754.63
2023-03-26T00:39:20.512Z,98745.63
2023-03-26T00:41:48.971Z,98763.88
2023-03-26T00:44:19.782Z,98750.78
2023-03-26T00:46:48.260Z,98758.84
2023-03-26T00:49:16.702Z,98749.16
2023-03-26T00:51:44.831Z,98746.69
2023-03-26T00:54:18.703Z,98756.22
2023-03-26T00:56:46.998Z,98757.22
2023-03-26T00:59:15.748Z,98764.25
2023-03-26T01:01:45.315Z,98765.25
2023-03-26T01:04:28.448Z,98754.75
2023-03-26T01:06:58.594Z,98765.25
2023-03-26T01:09:33.127Z,98749.00
2023-03-26T01:12:03.403Z,98758.06
2023-03-26T01:14:31.599Z,98753.66
2023-03-26T01:17:03.747Z,98753.16
2023-03-26T01:19:39.259Z,98768.91
2023-03-26T01:22:09.763Z,98781.44
2023-03-26T01:24:39.632Z,98777.00
2023-03-26T01:27:24.639Z,98775.00
2023-03-26T01:29:55.784Z,98777.16
2023-03-26T01:32:33.187Z,98752.88
2023-03-26T01:35:22.805Z,98776.84
2023-03-26T01:38:10.625Z,98792.25
2023-03-26T01:40:47.107Z,98778.03
2023-03-26T01:43:28.365Z,98767.69
2023-03-26T01:45:59.297Z,98768.03
2023-03-26T01:48:33.102Z,98779.66
2023-03-26T01:51:01.184Z,98779.50
2023-03-26T01:53:30.060Z,98793.59
2023-03-26T01:56:17.629Z,98804.09
2023-03-26T01:59:00.048Z,98803.47
2023-03-26T02:01:34.224Z,98799.69
2023-03-26T02:04:12.278Z,98786.72
2023-03-26T02:06:46.329Z,98792.78
2023-03-26T02:09:19.092Z,98791.63
2023-03-26T02:12:03.694Z,98780.81
2023-03-26T02:14:32.592Z,98792.94
2023-03-26T02:17:01.035Z,98780.16
2023-03-26T02:19:30.015Z,98795.25
2023-03-26T02:21:59.987Z,98792.28
2023-03-26T02:24:28.189Z,98793.44
2023-03-26T02:26:58.262Z,98798.03
2023-03-26T02:29:27.122Z,98805.75
2023-03-26T02:31:55.514Z,98799.03
2023-03-26T02:34:24.133Z,98805.28
2023-03-26T02:36:52.333Z,98809.88
2023-03-26T02:39:20.929Z,98802.16
2023-03-26T02:41:49.827Z,98805.94
2023-03-26T02:44:21.791Z,98805.28
2023-03-26T02:46:50.348Z,98813.16
2023-03-26T02:49:19.313Z,98817.91
2023-03-26T02:51:47.481Z,98816.75
2023-03-26T02:54:16.349Z,98808.38
2023-03-26T02:56:44.676Z,98819.84
2023-03-26T02:59:13.843Z,98823.00
2023-03-26T03:01:43.771Z,98820.69
2023-03-26T03:04:12.660Z,98814.13
2023-03-26T03:06:41.406Z,98823.16
2023-03-26T03:09:09.698Z,98814.94
2023-03-26T03:11:37.896Z,98813.31
2023-03-26T03:14:06.766Z,98819.06
2023-03-26T03:16:34.940Z,98830.38
2023-03-26T03:19:06.202Z,98829.06
2023-03-26T03:21:34.395Z,98822.81
2023-03-26T03:24:02.846Z,98830.03
2023-03-26T03:26:31.290Z,98831.53
2023-03-26T03:29:03.535Z,98830.34
2023-03-26T03:31:31.843Z,98829.06
2023-03-26T03:34:00.053Z,98835.44
2023-03-26T03:36:30.511Z,98832.00
2023-03-26T03:39:02.756Z,98832.34
2023-03-26T03:41:31.302Z,98831.69
2023-03-26T03:44:08.203Z,98830.69
2023-03-26T03:46:36.616Z,98832.16
2023-03-26T03:49:05.083Z,98828.88
2023-03-26T03:51:35.302Z,98828.91
2023-03-26T03:54:04.709Z,98832.03
2023-03-26T03:56:32.778Z,98848.91
2023-03-26T03:59:00.956Z,98825.66
2023-03-26T04:01:30.829Z,98843.19
2023-03-26T04:03:59.398Z,98840.22
2023-03-26T04:06:30.397Z,98840.72
2023-03-26T04:09:01.594Z,98845.63
2023-03-26T04:11:29.641Z,98834.81
2023-03-26T04:13:57.794Z,98841.38
2023-03-26T04:16:26.049Z,98837.94
2023-03-26T04:18:54.171Z,98834.50
2023-03-26T04:21:22.705Z,98833.03
2023-03-26T04:23:51.274Z,98839.91
2023-03-26T04:26:20.935Z,98852.34
2023-03-26T04:28:53.484Z,98841.69
2023-03-26T04:31:24.834Z,98841.06
2023-03-26T04:33:55.408Z,98845.28
2023-03-26T04:36:28.488Z,98850.72
2023-03-26T04:39:02.516Z,98844.00
2023-03-26T04:41:32.479Z,98842.19
2023-03-26T04:44:02.734Z,98850.88
2023-03-26T04:46:33.630Z,98852.69
2023-03-26T04:49:02.875Z,98857.59
2023-03-26T04:51:38.349Z,98854.50
2023-03-26T04:54:08.882Z,98851.38
2023-03-26T04:56:45.955Z,98849.56
2023-03-26T04:59:18.628Z,98852.69
2023-03-26T05:01:46.876Z,98854.66
2023-03-26T05:04:15.144Z,98848.09
2023-03-26T05:06:43.495Z,98847.75
2023-03-26T05:09:11.801Z,98844.31
2023-03-26T05:11:41.502Z,98852.84
2023-03-26T05:14:10.210Z,98850.06
2023-03-26T05:16:42.298Z,98850.72
2023-03-26T05:19:10.510Z,98849.06
2023-03-26T05:21:38.539Z,98855.47
2023-03-26T05:24:07.707Z,98853.81
2023-03-26T05:26:36.944Z,98849.41
2023-03-26T05:29:06.515Z,98856.28
2023-03-26T05:31:35.158Z,98841.53
2023-03-26T05:34:03.388Z,98847.59
2023-03-26T05:36:37.073Z,98850.88
2023-03-26T05:39:05.594Z,98849.25
2023-03-26T05:41:33.866Z,98849.25
2023-03-26T05:44:02.160Z,98853.31
2023-03-26T05:46:33.199Z,98848.06
2023-03-26T05:49:01.450Z,98846.44
2023-03-26T05:51:29.958Z,98839.75
2023-03-26T05:53:58.019Z,98850.22
2023-03-26T05:56:26.200Z,98859.72
2023-03-26T05:58:54.432Z,98852.34
2023-03-26T06:01:22.802Z,98864.50
2023-03-26T06:03:52.483Z,98844.50
2023-03-26T06:06:21.997Z,98854.97
2023-03-26T06:09:02.293Z,98863.31
2023-03-26T06:11:32.452Z,98862.00
2023-03-26T06:14:00.855Z,98858.25
2023-03-26T06:16:29.131Z,98856.13
2023-03-26T06:18:59.209Z,98870.88
2023-03-26T06:21:28.398Z,98857.56
2023-03-26T06:23:57.005Z,98875.94
2023-03-26T06:26:25.150Z,98879.06
2023-03-26T06:28:53.361Z,98880.50
2023-03-26T06:31:21.454Z,98881.19
2023-03-26T06:33:49.944Z,98865.22
2023-03-26T06:36:19.500Z,98877.66
2023-03-26T06:38:47.716Z,98878.66
2023-03-26T06:41:15.784Z,98886.19
2023-03-26T06:43:44.077Z,98882.38
2023-03-26T06:46:13.314Z,98883.03
2023-03-26T06:48:42.293Z,98890.91
2023-03-26T06:51:11.090Z,98895.53
2023-03-26T06:53:40.824Z,98895.47
2023-03-26T06:56:10.497Z,98903.34
2023-03-26T06:58:38.636Z,98903.50
2023-03-26T07:01:07.341Z,98904.44
2023-03-26T07:03:36.025Z,98905.53
2023-03-26T07:06:04.162Z,98911.41
2023-03-26T07:08:32.318Z,98911.22
2023-03-26T07:11:03.278Z,98910.25
2023-03-26T07:13:31.373Z,98902.38
2023-03-26T07:15:59.504Z,98896.66
2023-03-26T07:18:27.624Z,98893.72
2023-03-26T07:20:56.503Z,98901.09
2023-03-26T07:23:25.408Z,98906.38
2023-03-26T07:25:57.559Z,98900.91
2023-03-26T07:28:36.286Z,98903.84
2023-03-26T07:31:16.846Z,98908.47
2023-03-26T07:33:53.864Z,98896.53
2023-03-26T07:36:27.900Z,98905.22
2023-03-26T07:39:13.126Z,98917.53
2023-03-26T07:41:48.066Z,98903.53
2023-03-26T07:44:48.176Z,98902.59
2023-03-26T07:47:25.764Z,98895.19
2023-03-26T07:49:57.917Z,98894.88
2023-03-26T07:52:27.028Z,98889.78
2023-03-26T07:54:55.585Z,98892.22
2023-03-26T07:57:36.003Z,98898.59
2023-03-26T08:00:12.467Z,98890.38
2023-03-26T08:03:08.255Z,98894.31
2023-03-26T08:05:40.098Z,98908.44
2023-03-26T08:08:20.811Z,98912.34
2023-03-26T08:11:08.689Z,98915.59
2023-03-26T08:13:47.193Z,98916.84
2023-03-26T08:16:27.207Z,98917.66
2023-03-26T08:19:04.240Z,98916.66
2023-03-26T08:21:38.156Z,98913.91
2023-03-26T08:24:12.658Z,98915.22
2023-03-26T08:26:49.086Z,98919.81
2023-03-26T08:29:24.488Z,98919.91
2023-03-26T08:31:57.581Z,98922.72
2023-03-26T08:34:25.733Z,98914.38
2023-03-26T08:36:53.905Z,98915.06
2023-03-26T08:39:22.724Z,98915.69
2023-03-26T08:42:37.292Z,98909.47
2023-03-26T08:45:40.072Z,98916.41
2023-03-26T08:48:52.278Z,98919.38
2023-03-26T08:52:24.682Z,98919.16
2023-03-26T08:55:23.995Z,98910.63
2023-03-26T08:58:55.020Z,98910.53
2023-03-26T09:02:13.665Z,98908.31
2023-03-26T09:05:17.941Z,98910.94
2023-03-26T09:08:06.179Z,98915.88
2023-03-26T09:11:06.440Z,98911.81
2023-03-26T09:14:02.390Z,98914.66
2023-03-26T09:17:03.623Z,98916.66
2023-03-26T09:20:16.085Z,98915.84
2023-03-26T09:23:22.402Z,98922.72
2023-03-26T09:26:25.147Z,98922.63
2023-03-26T09:29:23.860Z,98916.84
2023-03-26T09:32:17.597Z,98923.59
2023-03-26T09:35:13.080Z,98927.06
2023-03-26T09:37:58.560Z,98926.56
2023-03-26T09:40:37.848Z,98917.91
2023-03-26T09:43:41.444Z,98916.94
2023-03-26T09:46:27.082Z,98926.97
2023-03-26T09:49:30.942Z,98925.81
2023-03-26T09:52:21.734Z,98930.75
2023-03-26T09:55:30.830Z,98918.47
2023-03-26T09:58:32.299Z,98915.78
2023-03-26T10:01:11.222Z,98928.69
2023-03-26T10:03:54.138Z,98918.91
2023-03-26T10:06:35.578Z,98933.31
2023-03-26T10:09:11.842Z,98933.50
2023-03-26T10:11:59.533Z,98935.13
2023-03-26T10:14:33.920Z,98937.59
2023-03-26T10:17:18.552Z,98943.03
2023-03-26T10:19:58.302Z,98933.97
2023-03-26T10:22:49.950Z,98948.34
2023-03-26T10:25:35.640Z,98947.66
2023-03-26T10:28:21.341Z,98943.31
2023-03-26T10:31:18.101Z,98930.53
2023-03-26T10:33:59.883Z,98943.94
2023-03-26T10:36:34.891Z,98948.88
2023-03-26T10:39:38.165Z,98963.56
2023-03-26T10:42:34.302Z,98966.84
2023-03-26T10:45:32.659Z,98970.94
2023-03-26T10:48:21.404Z,98965.72
2023-03-26T10:51:43.708Z,98970.63
2023-03-26T10:54:20.573Z,98974.94
2023-03-26T10:56:51.298Z,98978.22
2023-03-26T10:59:20.189Z,98982.25
2023-03-26T11:01:54.747Z,98978.25
2023-03-26T11:04:33.676Z,98969.16
2023-03-26T11:07:16.538Z,98982.41
2023-03-26T11:09:51.040Z,98984.22
2023-03-26T11:12:28.432Z,98983.13
2023-03-26T11:15:09.647Z,98986.97
2023-03-26T11:17:47.987Z,98983.34
2023-03-26T11:20:20.750Z,98975.63
2023-03-26T11:23:05.132Z,98968.53
2023-03-26T11:25:57.696Z,98977.38
2023-03-26T11:28:39.776Z,98977.09
2023-03-26T11:31:19.163Z,98981.00
2023-03-26T11:33:53.570Z,98979.06
2023-03-26T11:36:26.474Z,98981.06
2023-03-26T11:38:59.700Z,98978.72
2023-03-26T11:41:30.912Z,98982.34
2023-03-26T11:44:05.498Z,98979.53
2023-03-26T11:46:50.854Z,98979.53
2023-03-26T11:49:23.065Z,98981.81
2023-03-26T11:51:51.693Z,98974.97
2023-03-26T11:54:21.283Z,98971.50
2023-03-26T11:57:04.818Z,98970.03
2023-03-26T11:59:45.608Z,98979.19
2023-03-26T12:02:29.670Z,98977.06
2023-03-26T12:05:13.678Z,98977.19
2023-03-26T12:07:54.661Z,98983.19
2023-03-26T12:10:27.544Z,98992.63
2023-03-26T12:12:59.146Z,98981.19
2023-03-26T12:15:28.650Z,98981.25
2023-03-26T12:18:24.762Z,98976.16
2023-03-26T12:21:04.633Z,98980.59
2023-03-26T12:23:58.556Z,98976.06
2023-03-26T12:26:50.246Z,98966.41
2023-03-26T12:29:20.794Z,98982.63
2023-03-26T12:32:03.796Z,98983.19
2023-03-26T12:34:35.958Z,98991.38
2023-03-26T12:37:06.927Z,98992.81
2023-03-26T12:40:07.172Z,99000.72
2023-03-26T12:44:47.836Z,98998.28
2023-03-26T12:45:24.315Z,98996.53
2023-03-26T12:48:01.272Z,98992.72
2023-03-26T12:50:53.069Z,98998.16
2023-03-26T12:53:51.073Z,99002.50
2023-03-26T12:56:24.646Z,98997.41
2023-03-26T12:59:15.971Z,99001.84
2023-03-26T13:01:55.488Z,99008.41
2023-03-26T13:05:06.510Z,99011.22
2023-03-26T13:07:45.933Z,99004.78
2023-03-26T13:10:35.180Z,99001.75
2023-03-26T13:13:19.111Z,99006.66
2023-03-26T13:15:54.244Z,99011.25
2023-03-26T13:18:59.552Z,99001.50
2023-03-26T13:21:36.018Z,99009.41
2023-03-26T13:24:17.068Z,99008.19
2023-03-26T13:26:57.783Z,99011.13
2023-03-26T13:29:36.421Z,99013.47
2023-03-26T13:32:15.489Z,99026.38
2023-03-26T13:35:13.967Z,99023.25
2023-03-26T13:38:02.358Z,99022.94
2023-03-26T13:40:42.570Z,99033.03
2023-03-26T13:43:38.340Z,99030.41
2023-03-26T13:46:19.896Z,99029.50
2023-03-26T13:48:54.224Z,99030.16
2023-03-26T13:51:28.837Z,99038.06
2023-03-26T13:54:06.579Z,99042.69
2023-03-26T13:56:43.278Z,99038.75
2023-03-26T13:59:18.782Z,99032.41
2023-03-26T14:01:53.552Z,99031.38
2023-03-26T14:04:32.260Z,99035.84
2023-03-26T14:07:06.924Z,99052.63
2023-03-26T14:09:40.877Z,99049.56
2023-03-26T14:12:30.650Z,99053.41
2023-03-26T14:15:04.021Z,99045.06
2023-03-26T14:17:40.680Z,99051.97
2023-03-26T14:20:59.988Z,99052.34
2023-03-26T14:24:11.703Z,99065.66
2023-03-26T14:26:56.325Z,99059.13
2023-03-26T14:29:32.728Z,99058.59
2023-03-26T14:32:24.115Z,99061.22
2023-03-26T14:35:21.841Z,99057.28
2023-03-26T14:38:11.852Z,99054.31
2023-03-26T14:41:03.412Z,99057.13
2023-03-26T14:44:25.445Z,99045.97
2023-03-26T14:47:19.898Z,99045.78
2023-03-26T14:50:21.581Z,99044.44
2023-03-26T14:53:00.951Z,99033.72
2023-03-26T14:56:04.130Z,99040.41
2023-03-26T14:59:17.450Z,99032.47
2023-03-26T15:02:39.444Z,99053.22
2023-03-26T15:06:00.511Z,99053.88
2023-03-26T15:09:13.044Z,99057.63
2023-03-26T15:11:50.862Z,99065.00
2023-03-26T15:14:47.073Z,99067.47
2023-03-26T15:17:37.873Z,99065.66
2023-03-26T15:20:34.301Z,99063.72
2023-03-26T15:23:44.313Z,99062.44
2023-03-26T15:26:52.682Z,99063.00
2023-03-26T15:29:56.338Z,99072.06
2023-03-26T15:32:58.170Z,99064.00
2023-03-26T15:35:49.984Z,99070.63
2023-03-26T15:38:48.553Z,99061.53
2023-03-26T15:41:19.505Z,99076.00
2023-03-26T15:44:25.407Z,99080.63
2023-03-26T15:47:33.492Z,99082.41
2023-03-26T15:50:13.028Z,99083.91
2023-03-26T15:52:49.323Z,99084.22
2023-03-26T15:55:28.608Z,99087.38
2023-03-26T15:58:05.433Z,99092.13
2023-03-26T16:00:37.342Z,99100.81
2023-03-26T16:03:21.653Z,99100.81
2023-03-26T16:06:21.902Z,99106.75
2023-03-26T16:09:10.404Z,99102.13
2023-03-26T16:11:53.921Z,99101.00
2023-03-26T16:14:24.401Z,99108.88
2023-03-26T16:16:57.581Z,99111.66
2023-03-26T16:19:52.048Z,99105.91
2023-03-26T16:22:56.245Z,99116.44
2023-03-26T16:25:30.973Z,99115.94
2023-03-26T16:28:22.349Z,99117.09
2023-03-26T16:31:37.830Z,99118.59
2023-03-26T16:34:40.812Z,99134.38
2023-03-26T16:37:43.846Z,99133.41
2023-03-26T16:40:34.957Z,99130.75
2023-03-26T16:43:36.601Z,99128.66
2023-03-26T16:46:17.500Z,99128.28
2023-03-26T16:48:56.083Z,99127.47
2023-03-26T16:51:47.762Z,99133.41
2023-03-26T16:54:23.413Z,99137.00
2023-03-26T16:56:59.726Z,99138.16
2023-03-26T17:00:06.143Z,99142.91
2023-03-26T17:02:46.447Z,99141.94
2023-03-26T17:05:21.488Z,99143.75
2023-03-26T17:07:57.122Z,99149.63
2023-03-26T17:10:39.258Z,99148.50
2023-03-26T17:13:14.495Z,99151.28
2023-03-26T17:15:49.819Z,99152.09
2023-03-26T17:18:29.026Z,99153.75
2023-03-26T17:21:10.098Z,99160.81
2023-03-26T17:24:05.415Z,99155.88
2023-03-26T17:26:45.450Z,99158.66
2023-03-26T17:29:25.648Z,99166.03
2023-03-26T17:31:59.970Z,99162.94
2023-03-26T17:35:02.378Z,99164.56
2023-03-26T17:37:44.947Z,99170.16
2023-03-26T17:41:07.680Z,99169.78
2023-03-26T17:43:53.677Z,99173.38
2023-03-26T17:46:37.552Z,99185.03
2023-03-26T17:49:15.142Z,99183.06
2023-03-26T17:51:51.685Z,99181.22
2023-03-26T17:54:25.858Z,99181.38
2023-03-26T17:56:56.210Z,99198.09
2023-03-26T17:59:28.701Z,99187.59
2023-03-26T18:02:01.219Z,99197.94
2023-03-26T18:04:36.546Z,99198.28
2023-03-26T18:07:45.340Z,99200.38
2023-03-26T18:10:29.184Z,99201.38
2023-03-26T18:13:25.255Z,99215.47
2023-03-26T18:16:09.646Z,99221.69
2023-03-26T18:18:49.394Z,99217.56
2023-03-26T18:21:22.888Z,99214.13
2023-03-26T18:23:51.918Z,99208.38
2023-03-26T18:26:23.782Z,99218.38
2023-03-26T18:28:54.997Z,99213.59
2023-03-26T18:31:29.590Z,99221.59
2023-03-26T18:33:59.426Z,99217.84
2023-03-26T18:36:28.850Z,99227.91
2023-03-26T18:38:59.576Z,99216.72
2023-03-26T18:41:30.848Z,99229.19
2023-03-26T18:44:03.630Z,99219.28
2023-03-26T18:46:36.818Z,99225.84
2023-03-26T18:49:08.679Z,99223.06
2023-03-26T18:51:46.463Z,99229.22
2023-03-26T18:54:22.703Z,99226.41
2023-03-26T18:56:55.200Z,99222.31
2023-03-26T18:59:29.201Z,99225.06
2023-03-26T19:02:00.003Z,99220.13
2023-03-26T19:04:31.403Z,99226.88
2023-03-26T19:06:59.780Z,99226.19
2023-03-26T19:09:31.987Z,99231.28
2023-03-26T19:12:08.415Z,99228.00
2023-03-26T19:14:59.458Z,99231.78
2023-03-26T19:17:32.788Z,99235.38
2023-03-26T19:20:01.730Z,99236.03
2023-03-26T19:22:31.449Z,99235.03
2023-03-26T19:25:02.583Z,99249.81
2023-03-26T19:27:30.772Z,99239.16
2023-03-26T19:30:20.050Z,99238.72
2023-03-26T19:32:56.663Z,99245.13
2023-03-26T19:35:43.380Z,99248.94
2023-03-26T19:38:22.093Z,99248.41
2023-03-26T19:40:53.300Z,99255.63
2023-03-26T19:43:22.148Z,99245.78
2023-03-26T19:46:00.429Z,99241.22
2023-03-26T19:48:45.291Z,99252.38
2023-03-26T19:51:21.409Z,99252.69
2023-03-26T19:53:58.556Z,99242.00
2023-03-26T19:56:27.356Z,99249.53
2023-03-26T19:58:59.279Z,99251.00
2023-03-26T20:01:30.104Z,99248.38
2023-03-26T20:04:04.346Z,99251.00
2023-03-26T20:09:22.092Z,99249.06
2023-03-26T20:11:52.652Z,99255.56
2023-03-26T20:14:24.456Z,99257.06
2023-03-26T20:17:12.416Z,99256.91
2023-03-26T20:19:41.877Z,99262.47
2023-03-26T20:22:14.572Z,99260.78
2023-03-26T20:24:44.764Z,99261.22
2023-03-26T20:27:14.231Z,99266.63
2023-03-26T20:29:42.777Z,99259.06
2023-03-26T20:32:19.795Z,99257.25
2023-03-26T20:34:49.996Z,99261.81
2023-03-26T20:37:18.688Z,99271.28
2023-03-26T20:39:47.058Z,99269.09
2023-03-26T20:42:16.249Z,99260.06
2023-03-26T20:44:44.743Z,99261.88
2023-03-26T20:47:14.330Z,99264.50
2023-03-26T20:49:43.347Z,99261.88
2023-03-26T20:52:15.526Z,99263.00
2023-03-26T20:54:43.661Z,99257.91
2023-03-26T20:57:13.495Z,99267.03
2023-03-26T20:59:42.091Z,99278.47
2023-03-26T21:02:13.379Z,99272.75
2023-03-26T21:04:41.735Z,99267.34
2023-03-26T21:07:17.596Z,99275.22
2023-03-26T21:09:48.909Z,99272.44
2023-03-26T21:12:26.149Z,99264.41
2023-03-26T21:14:55.788Z,99274.25
2023-03-26T21:17:25.078Z,99275.72
2023-03-26T21:19:54.013Z,99276.53
2023-03-26T21:22:32.586Z,99274.25
2023-03-26T21:25:17.258Z,99277.44
2023-03-26T21:27:58.366Z,99278.28
2023-03-26T21:30:28.152Z,99278.13
2023-03-26T21:32:56.322Z,99277.44
2023-03-26T21:35:35.786Z,99290.56
2023-03-26T21:38:06.080Z,99277.75
2023-03-26T21:40:37.014Z,99284.34
2023-03-26T21:43:06.220Z,99280.44
2023-03-26T21:45:35.819Z,99277.69
2023-03-26T21:48:04.434Z,99278.47
2023-03-26T21:50:33.909Z,99273.41
2023-03-26T21:53:02.786Z,99283.06
2023-03-26T21:55:39.937Z,99288.31
2023-03-26T21:58:23.409Z,99290.25
2023-03-26T22:01:10.832Z,99295.63
2023-03-26T22:03:55.387Z,99289.88
2023-03-26T22:06:42.875Z,99295.41
2023-03-26T22:09:12.274Z,99301.25
2023-03-26T22:11:44.767Z,99298.09
2023-03-26T22:14:13.401Z,99302.38
2023-03-26T22:16:42.103Z,99301.69
2023-03-26T22:19:10.875Z,99296.59
2023-03-26T22:21:38.962Z,99309.00
2023-03-26T22:24:08.614Z,99302.44
2023-03-26T22:26:41.244Z,99313.06
2023-03-26T22:29:10.833Z,99316.50
2023-03-26T22:31:45.833Z,99317.88
2023-03-26T22:34:17.874Z,99321.13
2023-03-26T22:37:06.715Z,99317.88
2023-03-26T22:39:34.986Z,99316.03
2023-03-26T22:42:04.973Z,99318.84
2023-03-26T22:44:38.974Z,99326.69
2023-03-26T22:47:08.291Z,99323.81
2023-03-26T22:49:36.601Z,99322.19
2023-03-26T22:52:05.034Z,99327.97
2023-03-26T22:54:33.286Z,99323.69
2023-03-26T22:57:01.785Z,99322.72
2023-03-26T22:59:29.919Z,99325.88
2023-03-26T23:01:59.636Z,99322.28
2023-03-26T23:04:31.378Z,99328.84
2023-03-26T23:07:00.383Z,99324.59
2023-03-26T23:09:28.538Z,99329.69
2023-03-26T23:11:57.039Z,99334.25
2023-03-26T23:14:25.474Z,99338.00
2023-03-26T23:16:53.593Z,99340.75
2023-03-26T23:19:23.528Z,99340.09
2023-03-26T23:21:52.685Z,99339.53
2023-03-26T23:24:20.742Z,99339.25
2023-03-26T23:26:57.579Z,99343.53
2023-03-26T23:29:25.953Z,99351.00
2023-03-26T23:31:54.643Z,99359.00
2023-03-26T23:34:24.202Z,99350.78
2023-03-26T23:37:01.951Z,99355.59
2023-03-26T23:39:32.212Z,99352.59
2023-03-26T23:42:04.699Z,99358.28
2023-03-26T23:44:34.135Z,99352.66
2023-03-26T23:47:03.546Z,99359.13
2023-03-26T23:49:33.447Z,99360.94
2023-03-26T23:52:02.257Z,99355.84
2023-03-26T23:54:30.504Z,99357.66
2023-03-26T23:56:59.634Z,99361.50
2023-03-26T23:59:29.084Z,99360.00
